sensor_id;sensor_type;location;lat;lon;timestamp;temperature;humidity
67799;SHT30;54596;43.216;27.904;2022-11-20T00:01:46;16.89;90.72
67799;SHT30;54596;43.216;27.904;2022-11-20T00:04:12;16.91;90.88
67799;SHT30;54596;43.216;27.904;2022-11-20T00:06:37;16.88;90.69
67799;SHT30;54596;43.216;27.904;2022-11-20T00:09:03;16.84;90.66
67799;SHT30;54596;43.216;27.904;2022-11-20T00:11:31;16.84;90.79
67799;SHT30;54596;43.216;27.904;2022-11-20T00:13:58;16.82;90.77
67799;SHT30;54596;43.216;27.904;2022-11-20T00:16:26;16.84;91.06
67799;SHT30;54596;43.216;27.904;2022-11-20T00:18:52;16.68;90.94
67799;SHT30;54596;43.216;27.904;2022-11-20T00:23:45;16.68;91.26
67799;SHT30;54596;43.216;27.904;2022-11-20T00:26:14;16.67;91.33
67799;SHT30;54596;43.216;27.904;2022-11-20T00:28:41;16.71;91.51
67799;SHT30;54596;43.216;27.904;2022-11-20T00:31:09;16.63;91.52
67799;SHT30;54596;43.216;27.904;2022-11-20T00:33:35;16.63;91.53
67799;SHT30;54596;43.216;27.904;2022-11-20T00:36:02;16.60;91.72
67799;SHT30;54596;43.216;27.904;2022-11-20T00:38:27;16.57;91.90
67799;SHT30;54596;43.216;27.904;2022-11-20T00:40:57;16.56;92.00
67799;SHT30;54596;43.216;27.904;2022-11-20T00:43:23;16.50;92.05
67799;SHT30;54596;43.216;27.904;2022-11-20T00:45:48;16.49;92.16
67799;SHT30;54596;43.216;27.904;2022-11-20T00:48:14;16.49;92.13
67799;SHT30;54596;43.216;27.904;2022-11-20T00:50:41;16.52;92.28
67799;SHT30;54596;43.216;27.904;2022-11-20T00:53:06;16.52;92.18
67799;SHT30;54596;43.216;27.904;2022-11-20T00:55:32;16.52;92.13
67799;SHT30;54596;43.216;27.904;2022-11-20T00:57:57;16.50;91.94
67799;SHT30;54596;43.216;27.904;2022-11-20T01:00:22;16.52;92.08
67799;SHT30;54596;43.216;27.904;2022-11-20T01:02:48;16.55;92.14
67799;SHT30;54596;43.216;27.904;2022-11-20T01:05:13;16.55;91.80
67799;SHT30;54596;43.216;27.904;2022-11-20T01:07:39;16.49;91.84
67799;SHT30;54596;43.216;27.904;2022-11-20T01:10:05;16.49;91.97
67799;SHT30;54596;43.216;27.904;2022-11-20T01:12:31;16.52;92.06
67799;SHT30;54596;43.216;27.904;2022-11-20T01:14:57;16.53;92.25
67799;SHT30;54596;43.216;27.904;2022-11-20T01:17:22;16.56;92.19
67799;SHT30;54596;43.216;27.904;2022-11-20T01:19:50;16.57;92.12
67799;SHT30;54596;43.216;27.904;2022-11-20T01:22:16;16.59;92.16
67799;SHT30;54596;43.216;27.904;2022-11-20T01:24:42;16.63;92.29
67799;SHT30;54596;43.216;27.904;2022-11-20T01:27:07;16.67;92.30
67799;SHT30;54596;43.216;27.904;2022-11-20T01:29:32;16.73;92.21
67799;SHT30;54596;43.216;27.904;2022-11-20T01:31:58;16.71;92.00
67799;SHT30;54596;43.216;27.904;2022-11-20T01:34:23;16.74;92.07
67799;SHT30;54596;43.216;27.904;2022-11-20T01:36:51;16.74;91.87
67799;SHT30;54596;43.216;27.904;2022-11-20T01:39:22;16.75;92.22
67799;SHT30;54596;43.216;27.904;2022-11-20T01:41:49;16.75;91.95
67799;SHT30;54596;43.216;27.904;2022-11-20T01:45:00;16.82;91.85
67799;SHT30;54596;43.216;27.904;2022-11-20T01:52:46;17.09;91.66
67799;SHT30;54596;43.216;27.904;2022-11-20T01:55:17;17.14;91.58
67799;SHT30;54596;43.216;27.904;2022-11-20T01:57:45;17.11;91.32
67799;SHT30;54596;43.216;27.904;2022-11-20T02:00:14;17.15;91.37
67799;SHT30;54596;43.216;27.904;2022-11-20T02:02:43;17.15;91.30
67799;SHT30;54596;43.216;27.904;2022-11-20T02:08:03;17.20;91.09
67799;SHT30;54596;43.216;27.904;2022-11-20T02:10:29;17.25;91.04
67799;SHT30;54596;43.216;27.904;2022-11-20T02:12:55;17.27;90.96
67799;SHT30;54596;43.216;27.904;2022-11-20T02:15:40;17.26;90.90
67799;SHT30;54596;43.216;27.904;2022-11-20T02:18:06;17.27;90.77
67799;SHT30;54596;43.216;27.904;2022-11-20T02:20:32;17.27;90.82
67799;SHT30;54596;43.216;27.904;2022-11-20T02:23:05;17.27;90.91
67799;SHT30;54596;43.216;27.904;2022-11-20T02:25:35;17.23;90.81
67799;SHT30;54596;43.216;27.904;2022-11-20T02:28:02;17.23;91.01
67799;SHT30;54596;43.216;27.904;2022-11-20T02:30:28;17.20;91.10
67799;SHT30;54596;43.216;27.904;2022-11-20T02:32:54;17.20;90.99
67799;SHT30;54596;43.216;27.904;2022-11-20T02:37:47;17.18;91.17
67799;SHT30;54596;43.216;27.904;2022-11-20T02:40:14;17.16;91.27
67799;SHT30;54596;43.216;27.904;2022-11-20T02:42:39;17.16;91.16
67799;SHT30;54596;43.216;27.904;2022-11-20T02:45:05;17.18;91.06
67799;SHT30;54596;43.216;27.904;2022-11-20T02:47:31;17.19;91.09
67799;SHT30;54596;43.216;27.904;2022-11-20T02:49:57;17.16;90.96
67799;SHT30;54596;43.216;27.904;2022-11-20T02:52:22;17.15;90.94
67799;SHT30;54596;43.216;27.904;2022-11-20T02:54:48;17.25;90.98
67799;SHT30;54596;43.216;27.904;2022-11-20T02:57:13;17.25;90.93
67799;SHT30;54596;43.216;27.904;2022-11-20T02:59:39;17.30;90.67
67799;SHT30;54596;43.216;27.904;2022-11-20T03:02:04;17.27;90.55
67799;SHT30;54596;43.216;27.904;2022-11-20T03:04:30;17.29;90.61
67799;SHT30;54596;43.216;27.904;2022-11-20T03:06:55;17.32;90.35
67799;SHT30;54596;43.216;27.904;2022-11-20T03:09:21;17.42;90.20
67799;SHT30;54596;43.216;27.904;2022-11-20T03:11:46;17.43;90.15
67799;SHT30;54596;43.216;27.904;2022-11-20T03:14:12;17.49;90.03
67799;SHT30;54596;43.216;27.904;2022-11-20T03:16:38;17.47;90.00
67799;SHT30;54596;43.216;27.904;2022-11-20T03:19:03;17.55;89.82
67799;SHT30;54596;43.216;27.904;2022-11-20T03:21:29;17.54;89.84
67799;SHT30;54596;43.216;27.904;2022-11-20T03:23:55;17.47;89.94
67799;SHT30;54596;43.216;27.904;2022-11-20T03:26:23;17.50;89.99
67799;SHT30;54596;43.216;27.904;2022-11-20T03:28:50;17.49;89.98
67799;SHT30;54596;43.216;27.904;2022-11-20T03:31:18;17.46;90.03
67799;SHT30;54596;43.216;27.904;2022-11-20T03:33:44;17.43;90.17
67799;SHT30;54596;43.216;27.904;2022-11-20T03:36:12;17.43;90.19
67799;SHT30;54596;43.216;27.904;2022-11-20T03:38:38;17.39;90.20
67799;SHT30;54596;43.216;27.904;2022-11-20T03:41:07;17.37;90.15
67799;SHT30;54596;43.216;27.904;2022-11-20T03:43:33;17.39;90.28
67799;SHT30;54596;43.216;27.904;2022-11-20T03:45:58;17.37;90.23
67799;SHT30;54596;43.216;27.904;2022-11-20T03:48:24;17.35;90.24
67799;SHT30;54596;43.216;27.904;2022-11-20T03:50:50;17.33;90.28
67799;SHT30;54596;43.216;27.904;2022-11-20T03:53:16;17.30;90.24
67799;SHT30;54596;43.216;27.904;2022-11-20T03:55:42;17.30;90.12
67799;SHT30;54596;43.216;27.904;2022-11-20T03:58:08;17.32;90.08
67799;SHT30;54596;43.216;27.904;2022-11-20T04:00:34;17.35;89.77
67799;SHT30;54596;43.216;27.904;2022-11-20T04:03:00;17.30;89.83
67799;SHT30;54596;43.216;27.904;2022-11-20T04:05:27;17.29;89.81
67799;SHT30;54596;43.216;27.904;2022-11-20T04:07:52;17.29;90.01
67799;SHT30;54596;43.216;27.904;2022-11-20T04:10:18;17.29;89.97
67799;SHT30;54596;43.216;27.904;2022-11-20T04:12:43;17.30;89.91
67799;SHT30;54596;43.216;27.904;2022-11-20T04:15:09;17.25;89.86
67799;SHT30;54596;43.216;27.904;2022-11-20T04:17:34;17.25;89.88
67799;SHT30;54596;43.216;27.904;2022-11-20T04:20:00;17.25;89.82
67799;SHT30;54596;43.216;27.904;2022-11-20T04:22:26;17.33;89.55
67799;SHT30;54596;43.216;27.904;2022-11-20T04:24:52;17.33;89.52
67799;SHT30;54596;43.216;27.904;2022-11-20T04:27:17;17.49;88.70
67799;SHT30;54596;43.216;27.904;2022-11-20T04:29:43;17.57;88.49
67799;SHT30;54596;43.216;27.904;2022-11-20T04:32:08;17.50;88.63
67799;SHT30;54596;43.216;27.904;2022-11-20T04:34:34;17.51;88.65
67799;SHT30;54596;43.216;27.904;2022-11-20T04:37:00;17.44;88.81
67799;SHT30;54596;43.216;27.904;2022-11-20T04:39:26;17.42;88.92
67799;SHT30;54596;43.216;27.904;2022-11-20T04:41:51;17.47;88.63
67799;SHT30;54596;43.216;27.904;2022-11-20T04:44:35;17.53;88.39
67799;SHT30;54596;43.216;27.904;2022-11-20T04:47:01;17.81;87.21
67799;SHT30;54596;43.216;27.904;2022-11-20T04:49:26;17.73;87.44
67799;SHT30;54596;43.216;27.904;2022-11-20T04:51:55;17.75;87.45
67799;SHT30;54596;43.216;27.904;2022-11-20T04:54:20;17.84;87.00
67799;SHT30;54596;43.216;27.904;2022-11-20T04:56:49;17.81;87.24
67799;SHT30;54596;43.216;27.904;2022-11-20T04:59:15;17.78;87.10
67799;SHT30;54596;43.216;27.904;2022-11-20T05:01:41;17.74;87.23
67799;SHT30;54596;43.216;27.904;2022-11-20T05:04:07;17.74;87.37
67799;SHT30;54596;43.216;27.904;2022-11-20T05:06:33;17.77;86.91
67799;SHT30;54596;43.216;27.904;2022-11-20T05:08:58;17.88;86.66
67799;SHT30;54596;43.216;27.904;2022-11-20T05:11:24;17.94;86.41
67799;SHT30;54596;43.216;27.904;2022-11-20T05:13:51;17.94;86.32
67799;SHT30;54596;43.216;27.904;2022-11-20T05:16:21;17.94;86.23
67799;SHT30;54596;43.216;27.904;2022-11-20T05:18:47;18.09;85.87
67799;SHT30;54596;43.216;27.904;2022-11-20T05:21:13;18.05;85.79
67799;SHT30;54596;43.216;27.904;2022-11-20T05:23:39;18.01;86.11
67799;SHT30;54596;43.216;27.904;2022-11-20T05:26:07;18.01;85.91
67799;SHT30;54596;43.216;27.904;2022-11-20T05:28:34;17.98;86.07
67799;SHT30;54596;43.216;27.904;2022-11-20T05:31:13;17.97;86.33
67799;SHT30;54596;43.216;27.904;2022-11-20T05:33:43;17.95;86.37
67799;SHT30;54596;43.216;27.904;2022-11-20T05:36:10;17.94;86.29
67799;SHT30;54596;43.216;27.904;2022-11-20T05:38:35;17.98;85.87
67799;SHT30;54596;43.216;27.904;2022-11-20T05:41:12;18.05;85.53
67799;SHT30;54596;43.216;27.904;2022-11-20T05:43:39;18.01;85.57
67799;SHT30;54596;43.216;27.904;2022-11-20T05:46:06;17.99;85.74
67799;SHT30;54596;43.216;27.904;2022-11-20T05:48:33;17.99;85.79
67799;SHT30;54596;43.216;27.904;2022-11-20T05:51:00;17.95;85.98
67799;SHT30;54596;43.216;27.904;2022-11-20T05:53:26;18.01;85.83
67799;SHT30;54596;43.216;27.904;2022-11-20T05:55:59;18.02;85.64
67799;SHT30;54596;43.216;27.904;2022-11-20T05:58:24;18.08;85.42
67799;SHT30;54596;43.216;27.904;2022-11-20T06:00:50;18.16;85.14
67799;SHT30;54596;43.216;27.904;2022-11-20T06:03:15;18.15;85.16
67799;SHT30;54596;43.216;27.904;2022-11-20T06:05:41;18.12;85.35
67799;SHT30;54596;43.216;27.904;2022-11-20T06:08:06;18.13;85.13
67799;SHT30;54596;43.216;27.904;2022-11-20T06:10:32;18.15;84.97
67799;SHT30;54596;43.216;27.904;2022-11-20T06:12:58;18.28;84.50
67799;SHT30;54596;43.216;27.904;2022-11-20T06:15:24;18.30;84.58
67799;SHT30;54596;43.216;27.904;2022-11-20T06:17:52;18.33;84.46
67799;SHT30;54596;43.216;27.904;2022-11-20T06:20:18;18.39;84.32
67799;SHT30;54596;43.216;27.904;2022-11-20T06:22:44;18.43;84.18
67799;SHT30;54596;43.216;27.904;2022-11-20T06:25:09;18.41;84.10
67799;SHT30;54596;43.216;27.904;2022-11-20T06:27:35;18.43;83.88
67799;SHT30;54596;43.216;27.904;2022-11-20T06:30:00;18.41;83.94
67799;SHT30;54596;43.216;27.904;2022-11-20T06:32:26;18.44;83.75
67799;SHT30;54596;43.216;27.904;2022-11-20T06:34:51;18.47;83.73
67799;SHT30;54596;43.216;27.904;2022-11-20T06:37:16;18.63;83.41
67799;SHT30;54596;43.216;27.904;2022-11-20T06:39:42;19.27;81.20
67799;SHT30;54596;43.216;27.904;2022-11-20T06:42:07;19.63;80.55
67799;SHT30;54596;43.216;27.904;2022-11-20T06:44:33;19.50;80.36
67799;SHT30;54596;43.216;27.904;2022-11-20T06:46:58;19.44;80.61
67799;SHT30;54596;43.216;27.904;2022-11-20T06:49:24;19.34;81.10
67799;SHT30;54596;43.216;27.904;2022-11-20T06:51:50;19.23;81.31
67799;SHT30;54596;43.216;27.904;2022-11-20T06:54:15;19.26;81.12
67799;SHT30;54596;43.216;27.904;2022-11-20T06:56:41;19.27;81.15
67799;SHT30;54596;43.216;27.904;2022-11-20T06:59:07;19.29;81.35
67799;SHT30;54596;43.216;27.904;2022-11-20T07:01:32;19.29;81.35
67799;SHT30;54596;43.216;27.904;2022-11-20T07:03:58;19.29;81.35
67799;SHT30;54596;43.216;27.904;2022-11-20T07:06:23;19.29;81.20
67799;SHT30;54596;43.216;27.904;2022-11-20T07:08:50;19.34;80.97
67799;SHT30;54596;43.216;27.904;2022-11-20T07:11:17;19.34;81.09
67799;SHT30;54596;43.216;27.904;2022-11-20T07:13:42;19.27;81.31
67799;SHT30;54596;43.216;27.904;2022-11-20T07:16:08;19.23;81.59
67799;SHT30;54596;43.216;27.904;2022-11-20T07:18:34;19.27;81.21
67799;SHT30;54596;43.216;27.904;2022-11-20T07:21:04;19.23;81.42
67799;SHT30;54596;43.216;27.904;2022-11-20T07:23:30;19.29;81.03
67799;SHT30;54596;43.216;27.904;2022-11-20T07:25:56;19.26;81.17
67799;SHT30;54596;43.216;27.904;2022-11-20T07:28:22;19.18;81.30
67799;SHT30;54596;43.216;27.904;2022-11-20T07:30:52;19.20;81.43
67799;SHT30;54596;43.216;27.904;2022-11-20T07:33:18;19.22;81.25
67799;SHT30;54596;43.216;27.904;2022-11-20T07:35:43;19.30;81.18
67799;SHT30;54596;43.216;27.904;2022-11-20T07:38:09;19.43;81.10
67799;SHT30;54596;43.216;27.904;2022-11-20T07:40:34;19.51;80.61
67799;SHT30;54596;43.216;27.904;2022-11-20T07:43:00;19.64;80.13
67799;SHT30;54596;43.216;27.904;2022-11-20T07:45:25;19.65;80.19
67799;SHT30;54596;43.216;27.904;2022-11-20T07:47:50;19.68;80.16
67799;SHT30;54596;43.216;27.904;2022-11-20T07:50:16;19.70;80.14
67799;SHT30;54596;43.216;27.904;2022-11-20T07:52:42;19.72;80.07
67799;SHT30;54596;43.216;27.904;2022-11-20T07:55:08;20.06;79.47
67799;SHT30;54596;43.216;27.904;2022-11-20T07:57:34;20.13;78.95
67799;SHT30;54596;43.216;27.904;2022-11-20T08:00:00;19.93;79.34
67799;SHT30;54596;43.216;27.904;2022-11-20T08:02:26;19.93;79.39
67799;SHT30;54596;43.216;27.904;2022-11-20T08:04:52;20.10;78.94
67799;SHT30;54596;43.216;27.904;2022-11-20T08:07:17;20.32;78.46
67799;SHT30;54596;43.216;27.904;2022-11-20T08:09:43;20.29;78.28
67799;SHT30;54596;43.216;27.904;2022-11-20T08:12:16;20.29;78.57
67799;SHT30;54596;43.216;27.904;2022-11-20T08:15:21;20.30;78.31
67799;SHT30;54596;43.216;27.904;2022-11-20T08:17:47;20.30;78.36
67799;SHT30;54596;43.216;27.904;2022-11-20T08:20:12;20.32;78.39
67799;SHT30;54596;43.216;27.904;2022-11-20T08:22:38;20.27;78.39
67799;SHT30;54596;43.216;27.904;2022-11-20T08:25:04;20.17;78.68
67799;SHT30;54596;43.216;27.904;2022-11-20T08:27:31;20.20;78.61
67799;SHT30;54596;43.216;27.904;2022-11-20T08:29:57;20.13;78.68
67799;SHT30;54596;43.216;27.904;2022-11-20T08:32:22;20.12;78.89
67799;SHT30;54596;43.216;27.904;2022-11-20T08:34:48;20.10;78.85
67799;SHT30;54596;43.216;27.904;2022-11-20T08:37:13;20.08;78.72
67799;SHT30;54596;43.216;27.904;2022-11-20T08:39:39;20.08;78.80
67799;SHT30;54596;43.216;27.904;2022-11-20T08:42:07;20.12;80.88
67799;SHT30;54596;43.216;27.904;2022-11-20T08:44:33;20.08;78.70
67799;SHT30;54596;43.216;27.904;2022-11-20T08:47:00;20.12;78.82
67799;SHT30;54596;43.216;27.904;2022-11-20T08:49:25;20.13;78.50
67799;SHT30;54596;43.216;27.904;2022-11-20T08:51:51;20.16;78.57
67799;SHT30;54596;43.216;27.904;2022-11-20T08:54:18;20.15;78.18
67799;SHT30;54596;43.216;27.904;2022-11-20T08:56:47;20.17;78.16
67799;SHT30;54596;43.216;27.904;2022-11-20T08:59:12;20.13;78.37
67799;SHT30;54596;43.216;27.904;2022-11-20T09:01:38;20.17;78.58
67799;SHT30;54596;43.216;27.904;2022-11-20T09:04:04;20.16;78.55
67799;SHT30;54596;43.216;27.904;2022-11-20T09:06:29;20.13;78.50
67799;SHT30;54596;43.216;27.904;2022-11-20T09:08:55;20.10;78.52
67799;SHT30;54596;43.216;27.904;2022-11-20T09:11:22;20.10;78.50
67799;SHT30;54596;43.216;27.904;2022-11-20T09:13:47;20.09;78.52
67799;SHT30;54596;43.216;27.904;2022-11-20T09:16:13;20.09;78.55
67799;SHT30;54596;43.216;27.904;2022-11-20T09:18:38;20.13;78.53
67799;SHT30;54596;43.216;27.904;2022-11-20T09:21:08;20.13;78.46
67799;SHT30;54596;43.216;27.904;2022-11-20T09:23:36;20.12;78.46
67799;SHT30;54596;43.216;27.904;2022-11-20T09:26:11;20.13;78.39
67799;SHT30;54596;43.216;27.904;2022-11-20T09:28:38;20.17;78.30
67799;SHT30;54596;43.216;27.904;2022-11-20T09:31:36;20.20;78.37
67799;SHT30;54596;43.216;27.904;2022-11-20T09:34:02;20.20;78.30
67799;SHT30;54596;43.216;27.904;2022-11-20T09:36:27;20.19;78.26
67799;SHT30;54596;43.216;27.904;2022-11-20T09:38:53;20.22;78.06
67799;SHT30;54596;43.216;27.904;2022-11-20T09:41:45;20.25;77.94
67799;SHT30;54596;43.216;27.904;2022-11-20T09:44:30;20.26;77.87
67799;SHT30;54596;43.216;27.904;2022-11-20T09:49:57;20.29;77.69
67799;SHT30;54596;43.216;27.904;2022-11-20T09:54:56;20.26;77.56
67799;SHT30;54596;43.216;27.904;2022-11-20T09:57:26;20.34;77.48
67799;SHT30;54596;43.216;27.904;2022-11-20T09:59:57;20.33;77.08
67799;SHT30;54596;43.216;27.904;2022-11-20T10:05:19;20.36;77.02
67799;SHT30;54596;43.216;27.904;2022-11-20T10:07:54;20.40;77.00
67799;SHT30;54596;43.216;27.904;2022-11-20T10:10:44;20.44;76.93
67799;SHT30;54596;43.216;27.904;2022-11-20T10:21:51;20.39;76.88
67799;SHT30;54596;43.216;27.904;2022-11-20T10:32:32;20.34;77.10
67799;SHT30;54596;43.216;27.904;2022-11-20T10:37:55;20.30;77.17
67799;SHT30;54596;43.216;27.904;2022-11-20T10:40:29;20.33;77.21
67799;SHT30;54596;43.216;27.904;2022-11-20T10:47:51;20.32;76.99
67799;SHT30;54596;43.216;27.904;2022-11-20T10:50:20;20.34;76.94
67799;SHT30;54596;43.216;27.904;2022-11-20T10:55:55;20.34;76.94
67799;SHT30;54596;43.216;27.904;2022-11-20T11:01:06;20.34;76.95
67799;SHT30;54596;43.216;27.904;2022-11-20T11:03:38;20.39;76.81
67799;SHT30;54596;43.216;27.904;2022-11-20T11:06:08;20.40;76.67
67799;SHT30;54596;43.216;27.904;2022-11-20T11:08:38;20.41;76.50
67799;SHT30;54596;43.216;27.904;2022-11-20T11:11:23;20.41;76.52
67799;SHT30;54596;43.216;27.904;2022-11-20T11:13:49;20.41;76.60
67799;SHT30;54596;43.216;27.904;2022-11-20T11:16:25;20.40;76.80
67799;SHT30;54596;43.216;27.904;2022-11-20T11:19:03;20.32;76.91
67799;SHT30;54596;43.216;27.904;2022-11-20T11:21:29;20.33;76.93
67799;SHT30;54596;43.216;27.904;2022-11-20T11:24:03;20.30;76.97
67799;SHT30;54596;43.216;27.904;2022-11-20T11:26:29;20.27;77.06
67799;SHT30;54596;43.216;27.904;2022-11-20T11:31:25;20.26;77.03
67799;SHT30;54596;43.216;27.904;2022-11-20T11:33:51;20.20;77.29
67799;SHT30;54596;43.216;27.904;2022-11-20T11:36:22;20.23;77.19
67799;SHT30;54596;43.216;27.904;2022-11-20T11:38:51;20.25;76.99
67799;SHT30;54596;43.216;27.904;2022-11-20T11:41:24;20.26;76.96
67799;SHT30;54596;43.216;27.904;2022-11-20T11:44:14;20.27;76.92
67799;SHT30;54596;43.216;27.904;2022-11-20T11:46:59;20.29;76.78
67799;SHT30;54596;43.216;27.904;2022-11-20T11:49:25;20.25;76.86
67799;SHT30;54596;43.216;27.904;2022-11-20T11:54:41;20.25;76.88
67799;SHT30;54596;43.216;27.904;2022-11-20T11:57:26;20.22;76.89
67799;SHT30;54596;43.216;27.904;2022-11-20T12:05:36;20.22;76.89
67799;SHT30;54596;43.216;27.904;2022-11-20T12:16:34;20.17;76.65
67799;SHT30;54596;43.216;27.904;2022-11-20T12:19:00;20.10;76.81
67799;SHT30;54596;43.216;27.904;2022-11-20T12:30:02;20.09;76.75
67799;SHT30;54596;43.216;27.904;2022-11-20T12:53:05;20.02;76.89
67799;SHT30;54596;43.216;27.904;2022-11-20T12:55:36;20.05;77.12
67799;SHT30;54596;43.216;27.904;2022-11-20T13:00:54;19.96;77.18
67799;SHT30;54596;43.216;27.904;2022-11-20T13:03:54;19.95;77.23
67799;SHT30;54596;43.216;27.904;2022-11-20T13:06:17;19.96;77.01
67799;SHT30;54596;43.216;27.904;2022-11-20T13:08:54;19.96;77.26
67799;SHT30;54596;43.216;27.904;2022-11-20T13:11:37;19.95;77.27
67799;SHT30;54596;43.216;27.904;2022-11-20T13:17:11;19.96;77.18
67799;SHT30;54596;43.216;27.904;2022-11-20T13:19:38;19.96;77.24
67799;SHT30;54596;43.216;27.904;2022-11-20T13:22:04;19.96;77.29
67799;SHT30;54596;43.216;27.904;2022-11-20T13:24:31;19.91;77.21
67799;SHT30;54596;43.216;27.904;2022-11-20T13:29:42;19.91;77.21
67799;SHT30;54596;43.216;27.904;2022-11-20T13:32:20;19.86;77.35
67799;SHT30;54596;43.216;27.904;2022-11-20T13:37:35;19.86;77.12
67799;SHT30;54596;43.216;27.904;2022-11-20T13:42:36;19.88;77.32
67799;SHT30;54596;43.216;27.904;2022-11-20T13:45:09;19.88;77.48
67799;SHT30;54596;43.216;27.904;2022-11-20T13:47:35;19.88;77.50
67799;SHT30;54596;43.216;27.904;2022-11-20T13:50:03;19.91;77.47
67799;SHT30;54596;43.216;27.904;2022-11-20T13:55:42;19.88;77.21
67799;SHT30;54596;43.216;27.904;2022-11-20T14:01:10;19.83;77.31
67799;SHT30;54596;43.216;27.904;2022-11-20T14:03:36;19.79;77.27
67799;SHT30;54596;43.216;27.904;2022-11-20T14:06:10;19.79;77.44
67799;SHT30;54596;43.216;27.904;2022-11-20T14:08:48;19.81;77.25
67799;SHT30;54596;43.216;27.904;2022-11-20T14:13:39;19.79;77.20
67799;SHT30;54596;43.216;27.904;2022-11-20T14:16:05;19.79;77.50
67799;SHT30;54596;43.216;27.904;2022-11-20T14:18:30;19.79;77.44
67799;SHT30;54596;43.216;27.904;2022-11-20T14:21:02;19.81;77.56
67799;SHT30;54596;43.216;27.904;2022-11-20T14:23:29;19.79;77.61
67799;SHT30;54596;43.216;27.904;2022-11-20T14:25:54;19.75;77.44
67799;SHT30;54596;43.216;27.904;2022-11-20T14:28:28;19.70;77.54
67799;SHT30;54596;43.216;27.904;2022-11-20T14:30:56;19.68;77.83
67799;SHT30;54596;43.216;27.904;2022-11-20T14:33:22;19.68;77.91
67799;SHT30;54596;43.216;27.904;2022-11-20T14:35:54;19.67;79.71
67799;SHT30;54596;43.216;27.904;2022-11-20T14:38:31;19.61;78.31
67799;SHT30;54596;43.216;27.904;2022-11-20T14:41:17;19.60;78.47
67799;SHT30;54596;43.216;27.904;2022-11-20T14:43:51;19.60;78.72
67799;SHT30;54596;43.216;27.904;2022-11-20T14:46:18;19.57;78.60
67799;SHT30;54596;43.216;27.904;2022-11-20T14:48:50;19.51;78.65
67799;SHT30;54596;43.216;27.904;2022-11-20T14:51:35;19.47;78.57
67799;SHT30;54596;43.216;27.904;2022-11-20T14:54:17;19.46;78.49
67799;SHT30;54596;43.216;27.904;2022-11-20T14:57:00;19.46;78.69
67799;SHT30;54596;43.216;27.904;2022-11-20T14:59:31;19.44;78.51
67799;SHT30;54596;43.216;27.904;2022-11-20T15:02:08;19.41;78.63
67799;SHT30;54596;43.216;27.904;2022-11-20T15:04:49;19.34;78.51
67799;SHT30;54596;43.216;27.904;2022-11-20T15:07:31;19.36;78.38
67799;SHT30;54596;43.216;27.904;2022-11-20T15:12:30;19.30;79.31
67799;SHT30;54596;43.216;27.904;2022-11-20T15:14:56;19.20;79.88
67799;SHT30;54596;43.216;27.904;2022-11-20T15:17:22;19.11;80.65
67799;SHT30;54596;43.216;27.904;2022-11-20T15:19:48;18.95;81.40
67799;SHT30;54596;43.216;27.904;2022-11-20T15:22:13;18.79;82.44
67799;SHT30;54596;43.216;27.904;2022-11-20T15:24:41;18.65;82.86
67799;SHT30;54596;43.216;27.904;2022-11-20T15:27:08;18.63;83.10
67799;SHT30;54596;43.216;27.904;2022-11-20T15:29:34;18.57;83.20
67799;SHT30;54596;43.216;27.904;2022-11-20T15:31:59;18.53;83.42
67799;SHT30;54596;43.216;27.904;2022-11-20T15:34:26;18.40;83.95
67799;SHT30;54596;43.216;27.904;2022-11-20T15:36:52;18.40;84.15
67799;SHT30;54596;43.216;27.904;2022-11-20T15:39:19;18.26;84.55
67799;SHT30;54596;43.216;27.904;2022-11-20T15:41:45;18.17;84.89
67799;SHT30;54596;43.216;27.904;2022-11-20T15:44:11;18.21;84.90
67799;SHT30;54596;43.216;27.904;2022-11-20T15:46:40;18.16;85.11
67799;SHT30;54596;43.216;27.904;2022-11-20T15:49:12;18.13;85.33
67799;SHT30;54596;43.216;27.904;2022-11-20T15:51:44;18.05;85.56
67799;SHT30;54596;43.216;27.904;2022-11-20T15:56:39;17.94;86.02
67799;SHT30;54596;43.216;27.904;2022-11-20T15:59:05;17.94;85.99
67799;SHT30;54596;43.216;27.904;2022-11-20T16:01:30;17.88;86.12
67799;SHT30;54596;43.216;27.904;2022-11-20T16:03:56;17.87;86.21
67799;SHT30;54596;43.216;27.904;2022-11-20T16:06:21;17.78;86.42
67799;SHT30;54596;43.216;27.904;2022-11-20T16:08:47;17.81;86.19
67799;SHT30;54596;43.216;27.904;2022-11-20T16:11:14;17.81;85.79
67799;SHT30;54596;43.216;27.904;2022-11-20T16:13:41;17.82;85.50
67799;SHT30;54596;43.216;27.904;2022-11-20T16:16:28;17.87;85.58
67799;SHT30;54596;43.216;27.904;2022-11-20T16:18:56;17.87;85.34
67799;SHT30;54596;43.216;27.904;2022-11-20T16:21:22;17.89;85.18
67799;SHT30;54596;43.216;27.904;2022-11-20T16:24:00;17.91;85.18
67799;SHT30;54596;43.216;27.904;2022-11-20T16:26:26;17.91;85.03
67799;SHT30;54596;43.216;27.904;2022-11-20T16:28:53;17.95;84.88
67799;SHT30;54596;43.216;27.904;2022-11-20T16:31:19;17.94;84.84
67799;SHT30;54596;43.216;27.904;2022-11-20T16:33:56;17.95;84.62
67799;SHT30;54596;43.216;27.904;2022-11-20T16:36:24;17.97;84.17
67799;SHT30;54596;43.216;27.904;2022-11-20T16:38:55;17.95;84.22
67799;SHT30;54596;43.216;27.904;2022-11-20T16:41:21;17.99;83.89
67799;SHT30;54596;43.216;27.904;2022-11-20T16:43:52;17.98;83.70
67799;SHT30;54596;43.216;27.904;2022-11-20T16:46:20;17.99;83.48
67799;SHT30;54596;43.216;27.904;2022-11-20T16:49:12;18.01;83.54
67799;SHT30;54596;43.216;27.904;2022-11-20T16:51:38;18.02;82.95
67799;SHT30;54596;43.216;27.904;2022-11-20T16:54:06;18.06;82.63
67799;SHT30;54596;43.216;27.904;2022-11-20T16:56:41;18.06;82.29
67799;SHT30;54596;43.216;27.904;2022-11-20T16:59:07;18.08;82.14
67799;SHT30;54596;43.216;27.904;2022-11-20T17:01:33;18.12;81.61
67799;SHT30;54596;43.216;27.904;2022-11-20T17:04:04;18.12;81.68
67799;SHT30;54596;43.216;27.904;2022-11-20T17:06:32;18.13;81.81
67799;SHT30;54596;43.216;27.904;2022-11-20T17:08:58;18.09;81.58
67799;SHT30;54596;43.216;27.904;2022-11-20T17:11:25;18.10;81.02
67799;SHT30;54596;43.216;27.904;2022-11-20T17:13:53;18.13;80.28
67799;SHT30;54596;43.216;27.904;2022-11-20T17:16:21;18.17;80.43
67799;SHT30;54596;43.216;27.904;2022-11-20T17:18:47;18.17;80.60
67799;SHT30;54596;43.216;27.904;2022-11-20T17:21:17;18.19;79.75
67799;SHT30;54596;43.216;27.904;2022-11-20T17:23:44;18.23;79.80
67799;SHT30;54596;43.216;27.904;2022-11-20T17:28:39;18.25;79.78
67799;SHT30;54596;43.216;27.904;2022-11-20T17:31:09;18.29;79.48
67799;SHT30;54596;43.216;27.904;2022-11-20T17:33:36;18.30;79.56